createdAt,value
2023-05-10T00:09:52.503Z,0.73
2023-05-10T00:19:55.682Z,0.60
2023-05-10T00:30:00.329Z,0.80
2023-05-10T00:40:03.551Z,0.68
2023-05-10T00:50:10.098Z,0.65
2023-05-10T01:00:18.860Z,0.50
2023-05-10T01:10:23.618Z,0.57
2023-05-10T01:20:29.965Z,0.50
2023-05-10T01:31:03.807Z,0.50
2023-05-10T01:41:17.031Z,0.50
2023-05-10T01:51:26.107Z,0.60
2023-05-10T02:01:31.921Z,0.50
2023-05-10T02:11:35.610Z,0.45
2023-05-10T02:21:41.180Z,0.50
2023-05-10T02:31:44.894Z,0.50
2023-05-10T02:41:51.288Z,0.50
2023-05-10T02:51:58.907Z,0.80
2023-05-10T03:02:04.222Z,0.50
2023-05-10T03:12:13.560Z,0.50
2023-05-10T03:22:27.135Z,0.55
2023-05-10T03:32:32.931Z,0.60
2023-05-10T03:42:38.462Z,0.63
2023-05-10T03:52:42.426Z,0.60
2023-05-10T04:02:47.068Z,0.70
2023-05-10T04:12:55.572Z,0.70
2023-05-10T04:23:00.060Z,0.60
2023-05-10T04:33:03.513Z,0.70
2023-05-10T04:43:08.044Z,0.70
2023-05-10T04:53:11.221Z,0.73
2023-05-10T05:03:16.020Z,0.63
2023-05-10T05:13:19.449Z,0.80
2023-05-10T05:23:25.832Z,0.70
2023-05-10T05:33:29.036Z,0.90
2023-05-10T05:43:34.570Z,0.80
2023-05-10T05:53:38.788Z,0.75
2023-05-10T06:03:43.351Z,0.80
2023-05-10T06:13:47.075Z,0.80
2023-05-10T06:23:51.649Z,0.50
2023-05-10T06:33:56.650Z,0.70
2023-05-10T06:44:01.401Z,0.80
2023-05-10T06:54:04.733Z,0.70
2023-05-10T07:04:09.387Z,0.75
2023-05-10T07:14:12.691Z,0.70
2023-05-10T07:24:17.287Z,0.80
2023-05-10T07:34:20.449Z,0.80
2023-05-10T07:44:24.999Z,1.50
2023-05-10T07:54:28.222Z,0.85
2023-05-10T08:04:32.772Z,1.20
2023-05-10T08:14:37.544Z,1.00
2023-05-10T08:24:42.927Z,0.98
2023-05-10T08:34:46.221Z,0.85
2023-05-10T08:44:51.184Z,1.13
2023-05-10T08:54:54.386Z,1.25
2023-05-10T09:04:59.074Z,1.20
2023-05-10T09:15:03.743Z,0.90
2023-05-10T09:25:11.917Z,1.23
2023-05-10T09:35:16.718Z,0.88
2023-05-10T09:45:21.739Z,1.10
2023-05-10T09:55:26.883Z,1.00
2023-05-10T10:05:35.557Z,1.13
2023-05-10T10:15:38.971Z,0.80
2023-05-10T10:25:45.346Z,1.10
2023-05-10T10:35:49.367Z,0.98
2023-05-10T10:46:15.643Z,0.90
2023-05-10T10:56:25.287Z,1.08
2023-05-10T11:06:34.457Z,1.00
2023-05-10T11:16:44.659Z,0.75
2023-05-10T11:26:52.642Z,0.60
2023-05-10T11:36:57.175Z,0.70
2023-05-10T11:47:02.457Z,0.63
2023-05-10T11:57:06.143Z,0.77
2023-05-10T12:07:10.879Z,0.90
2023-05-10T12:17:14.537Z,0.70
2023-05-10T12:27:19.146Z,0.70
2023-05-10T12:37:26.406Z,0.82
2023-05-10T12:47:33.979Z,0.73
2023-05-10T12:57:37.145Z,1.25
2023-05-10T13:07:41.713Z,0.95
2023-05-10T13:17:46.263Z,1.40
2023-05-10T13:27:50.854Z,1.25
2023-05-10T13:37:54.464Z,1.45
2023-05-10T13:47:59.106Z,0.98
2023-05-10T13:58:02.283Z,0.73
2023-05-10T14:08:06.852Z,0.65
2023-05-10T14:18:10.003Z,0.75
2023-05-10T14:28:15.392Z,0.60
2023-05-10T14:38:18.812Z,0.70
2023-05-10T14:48:23.377Z,0.50
2023-05-10T14:58:26.754Z,0.60
2023-05-10T15:08:31.269Z,0.30
2023-05-10T15:18:34.454Z,0.47
2023-05-10T15:28:38.993Z,0.40
2023-05-10T15:38:42.135Z,0.60
2023-05-10T15:48:46.698Z,0.60
2023-05-10T15:58:50.020Z,0.32
2023-05-10T16:08:54.769Z,0.40
2023-05-10T16:18:58.766Z,0.40
2023-05-10T16:29:03.450Z,0.50
2023-05-10T16:39:06.732Z,0.38
2023-05-10T16:49:12.397Z,0.40
2023-05-10T16:59:16.269Z,0.40
2023-05-10T17:09:21.196Z,0.45
2023-05-10T17:19:26.261Z,0.50
2023-05-10T17:29:32.047Z,0.60
2023-05-10T17:39:36.378Z,0.70
2023-05-10T17:49:42.430Z,0.60
2023-05-10T17:59:45.655Z,0.50
2023-05-10T18:09:50.233Z,0.45
2023-05-10T18:19:53.926Z,0.55
2023-05-10T18:29:58.492Z,0.70
2023-05-10T18:40:01.753Z,1.23
2023-05-10T18:50:07.151Z,0.70
2023-05-10T19:00:12.500Z,0.90
2023-05-10T19:10:17.453Z,0.50
2023-05-10T19:20:20.751Z,0.45
2023-05-10T19:30:25.829Z,0.60
2023-05-10T19:40:30.978Z,0.52
2023-05-10T19:50:36.233Z,0.50
2023-05-10T20:00:39.641Z,0.60
2023-05-10T20:10:44.347Z,0.60
2023-05-10T20:20:47.668Z,0.52
2023-05-10T20:30:54.043Z,0.98
2023-05-10T20:40:57.364Z,0.73
2023-05-10T20:51:03.213Z,0.70
2023-05-10T21:01:06.496Z,0.90
2023-05-10T21:11:11.036Z,0.77
2023-05-10T21:21:14.166Z,0.70
2023-05-10T21:31:18.834Z,0.90
2023-05-10T21:41:22.088Z,0.90
2023-05-10T21:51:27.289Z,0.77
2023-05-10T22:01:30.538Z,0.80
2023-05-10T22:11:35.172Z,0.80
2023-05-10T22:21:38.462Z,0.93
2023-05-10T22:31:43.471Z,0.80
2023-05-10T22:41:46.620Z,1.20
2023-05-10T22:51:51.123Z,1.00
2023-05-10T23:01:54.931Z,1.10
2023-05-10T23:11:59.557Z,0.70
2023-05-10T23:22:02.679Z,0.77
2023-05-10T23:32:07.335Z,0.88
2023-05-10T23:42:10.558Z,0.80
2023-05-10T23:52:15.082Z,0.80
